sensor_id;sensor_type;location;lat;lon;timestamp;pressure;altitude;pressure_sealevel;temperature;humidity
65760;BME280;52496;51.082;5.066;2022-12-18T00:00:17;102713.47;;;-7.57;100.00
65760;BME280;52496;51.082;5.066;2022-12-18T00:02:47;102712.56;;;-7.54;100.00
65760;BME280;52496;51.082;5.066;2022-12-18T00:05:18;102709.97;;;-7.54;100.00
65760;BME280;52496;51.082;5.066;2022-12-18T00:07:48;102704.81;;;-7.57;100.00
65760;BME280;52496;51.082;5.066;2022-12-18T00:10:19;102703.13;;;-7.60;100.00
65760;BME280;52496;51.082;5.066;2022-12-18T00:12:49;102688.44;;;-7.64;100.00
65760;BME280;52496;51.082;5.066;2022-12-18T00:15:20;102690.28;;;-7.69;100.00
65760;BME280;52496;51.082;5.066;2022-12-18T00:17:50;102689.47;;;-7.74;100.00
65760;BME280;52496;51.082;5.066;2022-12-18T00:20:21;102692.97;;;-7.77;100.00
65760;BME280;52496;51.082;5.066;2022-12-18T00:22:55;102691.25;;;-7.79;100.00
65760;BME280;52496;51.082;5.066;2022-12-18T00:25:26;102688.75;;;-7.84;100.00
65760;BME280;52496;51.082;5.066;2022-12-18T00:27:56;102681.00;;;-7.89;100.00
65760;BME280;52496;51.082;5.066;2022-12-18T00:30:27;102686.22;;;-7.92;100.00
65760;BME280;52496;51.082;5.066;2022-12-18T00:32:58;102689.75;;;-7.96;100.00
65760;BME280;52496;51.082;5.066;2022-12-18T00:35:29;102687.19;;;-7.99;100.00
65760;BME280;52496;51.082;5.066;2022-12-18T00:37:59;102685.56;;;-8.06;100.00
65760;BME280;52496;51.082;5.066;2022-12-18T00:40:30;102677.81;;;-8.09;100.00
65760;BME280;52496;51.082;5.066;2022-12-18T00:43:00;102670.94;;;-8.12;100.00
65760;BME280;52496;51.082;5.066;2022-12-18T00:45:32;102665.75;;;-8.13;100.00
65760;BME280;52496;51.082;5.066;2022-12-18T00:48:02;102670.09;;;-8.14;100.00
65760;BME280;52496;51.082;5.066;2022-12-18T00:50:33;102667.53;;;-8.15;100.00
65760;BME280;52496;51.082;5.066;2022-12-18T00:53:04;102669.22;;;-8.16;100.00
65760;BME280;52496;51.082;5.066;2022-12-18T00:55:34;102672.72;;;-8.15;100.00
65760;BME280;52496;51.082;5.066;2022-12-18T00:58:05;102670.94;;;-8.12;100.00
65760;BME280;52496;51.082;5.066;2022-12-18T01:00:36;102663.97;;;-8.08;100.00
65760;BME280;52496;51.082;5.066;2022-12-18T01:03:07;102656.03;;;-8.00;100.00
65760;BME280;52496;51.082;5.066;2022-12-18T01:05:40;102655.13;;;-7.95;100.00
65760;BME280;52496;51.082;5.066;2022-12-18T01:08:10;102650.72;;;-7.91;100.00
65760;BME280;52496;51.082;5.066;2022-12-18T01:10:41;102665.41;;;-7.89;100.00
65760;BME280;52496;51.082;5.066;2022-12-18T01:13:11;102674.00;;;-7.82;100.00
65760;BME280;52496;51.082;5.066;2022-12-18T01:15:49;102679.13;;;-7.77;100.00
65760;BME280;52496;51.082;5.066;2022-12-18T01:18:20;102678.22;;;-7.76;100.00
65760;BME280;52496;51.082;5.066;2022-12-18T01:20:51;102675.63;;;-7.76;100.00
65760;BME280;52496;51.082;5.066;2022-12-18T01:23:21;102680.00;;;-7.78;100.00
65760;BME280;52496;51.082;5.066;2022-12-18T01:25:52;102684.31;;;-7.77;100.00
65760;BME280;52496;51.082;5.066;2022-12-18T01:28:22;102677.41;;;-7.78;100.00
65760;BME280;52496;51.082;5.066;2022-12-18T01:30:52;102680.00;;;-7.80;100.00
65760;BME280;52496;51.082;5.066;2022-12-18T01:33:23;102681.78;;;-7.82;100.00
65760;BME280;52496;51.082;5.066;2022-12-18T01:35:53;102682.69;;;-7.85;100.00
65760;BME280;52496;51.082;5.066;2022-12-18T01:38:24;102672.34;;;-7.88;100.00
65760;BME280;52496;51.082;5.066;2022-12-18T01:40:59;102675.84;;;-7.92;100.00
65760;BME280;52496;51.082;5.066;2022-12-18T01:43:55;102681.94;;;-7.94;100.00
65760;BME280;52496;51.082;5.066;2022-12-18T01:46:27;102675.94;;;-7.98;100.00
65760;BME280;52496;51.082;5.066;2022-12-18T01:49:00;102663.88;;;-8.03;100.00
65760;BME280;52496;51.082;5.066;2022-12-18T01:51:31;102667.44;;;-8.09;100.00
65760;BME280;52496;51.082;5.066;2022-12-18T01:54:02;102660.59;;;-8.16;100.00
65760;BME280;52496;51.082;5.066;2022-12-18T01:56:32;102670.19;;;-8.21;100.00
65760;BME280;52496;51.082;5.066;2022-12-18T01:59:05;102668.50;;;-8.25;100.00
65760;BME280;52496;51.082;5.066;2022-12-18T02:01:38;102670.28;;;-8.29;100.00
65760;BME280;52496;51.082;5.066;2022-12-18T02:04:25;102665.97;;;-8.32;100.00
65760;BME280;52496;51.082;5.066;2022-12-18T02:10:07;102683.34;;;-8.37;100.00
65760;BME280;52496;51.082;5.066;2022-12-18T02:15:49;102672.16;;;-8.40;100.00
65760;BME280;52496;51.082;5.066;2022-12-18T02:18:24;102667.88;;;-8.43;100.00
65760;BME280;52496;51.082;5.066;2022-12-18T02:26:42;102655.81;;;-8.47;100.00
65760;BME280;52496;51.082;5.066;2022-12-18T02:29:20;102655.00;;;-8.50;100.00
65760;BME280;52496;51.082;5.066;2022-12-18T02:31:55;102647.22;;;-8.52;100.00
65760;BME280;52496;51.082;5.066;2022-12-18T02:34:30;102642.94;;;-8.56;100.00
65760;BME280;52496;51.082;5.066;2022-12-18T02:37:04;102639.53;;;-8.61;100.00
65760;BME280;52496;51.082;5.066;2022-12-18T02:39:39;102632.66;;;-8.64;100.00
65760;BME280;52496;51.082;5.066;2022-12-18T02:42:10;102631.78;;;-8.64;100.00
65760;BME280;52496;51.082;5.066;2022-12-18T02:44:44;102622.31;;;-8.65;100.00
65760;BME280;52496;51.082;5.066;2022-12-18T02:47:18;102612.81;;;-8.66;100.00
65760;BME280;52496;51.082;5.066;2022-12-18T02:52:56;102606.78;;;-8.68;100.00
65760;BME280;52496;51.082;5.066;2022-12-18T03:02:00;102601.69;;;-8.76;100.00
65760;BME280;52496;51.082;5.066;2022-12-18T03:04:43;102593.03;;;-8.77;100.00
65760;BME280;52496;51.082;5.066;2022-12-18T03:07:23;102598.25;;;-8.78;100.00
65760;BME280;52496;51.082;5.066;2022-12-18T03:09:56;102604.31;;;-8.81;100.00
65760;BME280;52496;51.082;5.066;2022-12-18T03:12:32;102597.47;;;-8.85;100.00
65760;BME280;52496;51.082;5.066;2022-12-18T03:15:21;102601.78;;;-8.87;100.00
65760;BME280;52496;51.082;5.066;2022-12-18T03:18:01;102605.28;;;-8.89;100.00
65760;BME280;52496;51.082;5.066;2022-12-18T03:20:34;102614.81;;;-8.93;100.00
65760;BME280;52496;51.082;5.066;2022-12-18T03:23:11;102615.75;;;-8.97;100.00
65760;BME280;52496;51.082;5.066;2022-12-18T03:25:44;102608.00;;;-9.00;100.00
65760;BME280;52496;51.082;5.066;2022-12-18T03:28:20;102614.91;;;-9.02;100.00
65760;BME280;52496;51.082;5.066;2022-12-18T03:30:55;102608.03;;;-9.03;100.00
65760;BME280;52496;51.082;5.066;2022-12-18T03:34:09;102602.88;;;-9.06;100.00
65760;BME280;52496;51.082;5.066;2022-12-18T03:36:40;102594.25;;;-9.08;100.00
65760;BME280;52496;51.082;5.066;2022-12-18T03:39:11;102592.53;;;-9.11;100.00
65760;BME280;52496;51.082;5.066;2022-12-18T03:42:06;102589.09;;;-9.11;100.00
65760;BME280;52496;51.082;5.066;2022-12-18T03:48:06;102589.09;;;-9.11;100.00
65760;BME280;52496;51.082;5.066;2022-12-18T03:53:59;102589.94;;;-9.09;100.00
65760;BME280;52496;51.082;5.066;2022-12-18T03:56:32;102585.66;;;-9.13;100.00
65760;BME280;52496;51.082;5.066;2022-12-18T03:59:04;102585.69;;;-9.16;100.00
65760;BME280;52496;51.082;5.066;2022-12-18T04:01:39;102580.53;;;-9.19;100.00
65760;BME280;52496;51.082;5.066;2022-12-18T04:04:12;102588.31;;;-9.19;100.00
65760;BME280;52496;51.082;5.066;2022-12-18T04:06:46;102588.34;;;-9.23;100.00
65760;BME280;52496;51.082;5.066;2022-12-18T04:09:18;102585.78;;;-9.26;100.00
65760;BME280;52496;51.082;5.066;2022-12-18T04:11:51;102590.94;;;-9.26;100.00
65760;BME280;52496;51.082;5.066;2022-12-18T04:14:21;102590.97;;;-9.27;100.00
65760;BME280;52496;51.082;5.066;2022-12-18T04:16:52;102581.50;;;-9.30;100.00
65760;BME280;52496;51.082;5.066;2022-12-18T04:19:22;102583.25;;;-9.30;100.00
65760;BME280;52496;51.082;5.066;2022-12-18T04:21:53;102592.75;;;-9.31;100.00
65760;BME280;52496;51.082;5.066;2022-12-18T04:24:24;102608.28;;;-9.31;100.00
65760;BME280;52496;51.082;5.066;2022-12-18T04:26:54;102610.03;;;-9.33;100.00
65760;BME280;52496;51.082;5.066;2022-12-18T04:29:25;102615.22;;;-9.34;100.00
65760;BME280;52496;51.082;5.066;2022-12-18T04:31:55;102616.09;;;-9.35;100.00
65760;BME280;52496;51.082;5.066;2022-12-18T04:34:26;102601.44;;;-9.38;100.00
65760;BME280;52496;51.082;5.066;2022-12-18T04:36:56;102599.69;;;-9.37;100.00
65760;BME280;52496;51.082;5.066;2022-12-18T04:39:27;102594.53;;;-9.39;100.00
65760;BME280;52496;51.082;5.066;2022-12-18T04:41:57;102579.88;;;-9.41;100.00
65760;BME280;52496;51.082;5.066;2022-12-18T04:44:28;102592.84;;;-9.43;100.00
65760;BME280;52496;51.082;5.066;2022-12-18T04:46:59;102573.88;;;-9.45;100.00
65760;BME280;52496;51.082;5.066;2022-12-18T04:49:29;102577.34;;;-9.46;100.00
65760;BME280;52496;51.082;5.066;2022-12-18T04:52:00;102584.25;;;-9.48;100.00
65760;BME280;52496;51.082;5.066;2022-12-18T04:54:30;102578.22;;;-9.49;100.00
65760;BME280;52496;51.082;5.066;2022-12-18T04:57:01;102583.41;;;-9.50;100.00
65760;BME280;52496;51.082;5.066;2022-12-18T04:59:31;102585.16;;;-9.49;100.00
65760;BME280;52496;51.082;5.066;2022-12-18T05:02:02;102579.97;;;-9.51;100.00
65760;BME280;52496;51.082;5.066;2022-12-18T05:04:32;102588.59;;;-9.50;100.00
65760;BME280;52496;51.082;5.066;2022-12-18T05:07:03;102584.28;;;-9.51;100.00
65760;BME280;52496;51.082;5.066;2022-12-18T05:09:33;102592.06;;;-9.51;100.00
65760;BME280;52496;51.082;5.066;2022-12-18T05:12:04;102595.53;;;-9.52;100.00
65760;BME280;52496;51.082;5.066;2022-12-18T05:14:35;102596.38;;;-9.53;100.00
65760;BME280;52496;51.082;5.066;2022-12-18T05:17:05;102591.19;;;-9.53;100.00
65760;BME280;52496;51.082;5.066;2022-12-18T05:19:36;102594.69;;;-9.54;100.00
65760;BME280;52496;51.082;5.066;2022-12-18T05:22:07;102597.25;;;-9.56;100.00
65760;BME280;52496;51.082;5.066;2022-12-18T05:24:38;102603.31;;;-9.55;100.00
65760;BME280;52496;51.082;5.066;2022-12-18T05:27:08;102603.31;;;-9.55;100.00
65760;BME280;52496;51.082;5.066;2022-12-18T05:29:39;102599.00;;;-9.55;100.00
65760;BME280;52496;51.082;5.066;2022-12-18T05:32:09;102587.81;;;-9.58;100.00
65760;BME280;52496;51.082;5.066;2022-12-18T05:34:40;102592.13;;;-9.60;100.00
65760;BME280;52496;51.082;5.066;2022-12-18T05:37:10;102596.44;;;-9.59;100.00
65760;BME280;52496;51.082;5.066;2022-12-18T05:39:42;102589.53;;;-9.60;100.00
65760;BME280;52496;51.082;5.066;2022-12-18T05:42:13;102580.91;;;-9.61;100.00
65760;BME280;52496;51.082;5.066;2022-12-18T05:44:44;102582.66;;;-9.61;100.00
65760;BME280;52496;51.082;5.066;2022-12-18T05:47:14;102585.25;;;-9.63;100.00
65760;BME280;52496;51.082;5.066;2022-12-18T05:49:45;102584.38;;;-9.63;100.00
65760;BME280;52496;51.082;5.066;2022-12-18T05:52:15;102586.13;;;-9.65;100.00
65760;BME280;52496;51.082;5.066;2022-12-18T05:54:46;102593.06;;;-9.67;100.00
65760;BME280;52496;51.082;5.066;2022-12-18T05:57:17;102588.72;;;-9.68;100.00
65760;BME280;52496;51.082;5.066;2022-12-18T05:59:47;102591.31;;;-9.68;100.00
65760;BME280;52496;51.082;5.066;2022-12-18T06:02:18;102589.63;;;-9.70;100.00
65760;BME280;52496;51.082;5.066;2022-12-18T06:04:51;102586.16;;;-9.72;100.00
65760;BME280;52496;51.082;5.066;2022-12-18T06:07:21;102598.28;;;-9.71;100.00
65760;BME280;52496;51.082;5.066;2022-12-18T06:09:52;102585.31;;;-9.72;100.00
65760;BME280;52496;51.082;5.066;2022-12-18T06:12:22;102585.34;;;-9.74;100.00
65760;BME280;52496;51.082;5.066;2022-12-18T06:14:53;102582.75;;;-9.75;100.00
65760;BME280;52496;51.082;5.066;2022-12-18T06:17:28;102580.19;;;-9.77;100.00
65760;BME280;52496;51.082;5.066;2022-12-18T06:19:59;102582.81;;;-9.80;100.00
65760;BME280;52496;51.082;5.066;2022-12-18T06:22:33;102587.97;;;-9.80;100.00
65760;BME280;52496;51.082;5.066;2022-12-18T06:25:04;102591.41;;;-9.81;100.00
65760;BME280;52496;51.082;5.066;2022-12-18T06:27:36;102595.75;;;-9.84;100.00
65760;BME280;52496;51.082;5.066;2022-12-18T06:30:07;102599.25;;;-9.85;100.00
65760;BME280;52496;51.082;5.066;2022-12-18T06:32:37;102594.91;;;-9.85;100.00
65760;BME280;52496;51.082;5.066;2022-12-18T06:35:08;102594.06;;;-9.87;100.00
65760;BME280;52496;51.082;5.066;2022-12-18T06:37:39;102586.28;;;-9.87;100.00
65760;BME280;52496;51.082;5.066;2022-12-18T06:40:09;102583.72;;;-9.88;100.00
65760;BME280;52496;51.082;5.066;2022-12-18T06:42:40;102586.28;;;-9.87;100.00
65760;BME280;52496;51.082;5.066;2022-12-18T06:45:11;102584.56;;;-9.88;100.00
65760;BME280;52496;51.082;5.066;2022-12-18T06:47:41;102588.88;;;-9.87;100.00
65760;BME280;52496;51.082;5.066;2022-12-18T06:50:12;102579.38;;;-9.85;100.00
65760;BME280;52496;51.082;5.066;2022-12-18T06:52:43;102572.44;;;-9.83;100.00
65760;BME280;52496;51.082;5.066;2022-12-18T06:55:14;102558.66;;;-9.82;100.00
65760;BME280;52496;51.082;5.066;2022-12-18T06:57:44;102559.50;;;-9.83;100.00
65760;BME280;52496;51.082;5.066;2022-12-18T07:00:15;102559.53;;;-9.84;100.00
65760;BME280;52496;51.082;5.066;2022-12-18T07:02:46;102548.31;;;-9.85;100.00
65760;BME280;52496;51.082;5.066;2022-12-18T07:05:16;102537.94;;;-9.82;100.00
65760;BME280;52496;51.082;5.066;2022-12-18T07:07:47;102525.84;;;-9.83;100.00
65760;BME280;52496;51.082;5.066;2022-12-18T07:10:18;102528.47;;;-9.84;100.00
65760;BME280;52496;51.082;5.066;2022-12-18T07:12:48;102526.72;;;-9.84;100.00
65760;BME280;52496;51.082;5.066;2022-12-18T07:15:19;102518.97;;;-9.85;100.00
65760;BME280;52496;51.082;5.066;2022-12-18T07:17:49;102520.66;;;-9.83;100.00
65760;BME280;52496;51.082;5.066;2022-12-18T07:20:20;102528.47;;;-9.84;100.00
65760;BME280;52496;51.082;5.066;2022-12-18T07:22:50;102519.81;;;-9.82;100.00
65760;BME280;52496;51.082;5.066;2022-12-18T07:25:21;102526.69;;;-9.81;100.00
65760;BME280;52496;51.082;5.066;2022-12-18T07:27:52;102515.47;;;-9.78;100.00
65760;BME280;52496;51.082;5.066;2022-12-18T07:30:22;102502.53;;;-9.77;100.00
65760;BME280;52496;51.082;5.066;2022-12-18T07:32:53;102509.38;;;-9.74;100.00
65760;BME280;52496;51.082;5.066;2022-12-18T07:35:23;102510.22;;;-9.71;100.00
65760;BME280;52496;51.082;5.066;2022-12-18T07:37:54;102499.81;;;-9.66;100.00
65760;BME280;52496;51.082;5.066;2022-12-18T07:40:25;102489.41;;;-9.60;100.00
65760;BME280;52496;51.082;5.066;2022-12-18T07:42:55;102493.66;;;-9.54;100.00
65760;BME280;52496;51.082;5.066;2022-12-18T07:45:26;102474.59;;;-9.47;100.00
65760;BME280;52496;51.082;5.066;2022-12-18T07:47:56;102477.97;;;-9.40;100.00
65760;BME280;52496;51.082;5.066;2022-12-18T07:50:27;102477.91;;;-9.34;100.00
65760;BME280;52496;51.082;5.066;2022-12-18T07:52:57;102481.31;;;-9.29;100.00
65760;BME280;52496;51.082;5.066;2022-12-18T07:55:29;102483.84;;;-9.25;100.00
65760;BME280;52496;51.082;5.066;2022-12-18T07:58:03;102484.69;;;-9.23;100.00
65760;BME280;52496;51.082;5.066;2022-12-18T08:00:34;102480.31;;;-9.19;100.00
65760;BME280;52496;51.082;5.066;2022-12-18T08:03:05;102484.59;;;-9.15;100.00
65760;BME280;52496;51.082;5.066;2022-12-18T08:05:36;102475.06;;;-9.11;100.00
65760;BME280;52496;51.082;5.066;2022-12-18T08:08:07;102485.38;;;-9.08;100.00
65760;BME280;52496;51.082;5.066;2022-12-18T08:10:38;102493.97;;;-9.03;100.00
65760;BME280;52496;51.082;5.066;2022-12-18T08:13:12;102485.22;;;-8.96;100.00
65760;BME280;52496;51.082;5.066;2022-12-18T08:15:43;102495.44;;;-8.84;100.00
65760;BME280;52496;51.082;5.066;2022-12-18T08:18:13;102503.09;;;-8.73;100.00
65760;BME280;52496;51.082;5.066;2022-12-18T08:20:44;102486.50;;;-8.61;100.00
65760;BME280;52496;51.082;5.066;2022-12-18T08:23:15;102481.16;;;-8.52;100.00
65760;BME280;52496;51.082;5.066;2022-12-18T08:25:46;102474.09;;;-8.41;100.00
65760;BME280;52496;51.082;5.066;2022-12-18T08:28:16;102484.25;;;-8.28;100.00
65760;BME280;52496;51.082;5.066;2022-12-18T08:30:51;102476.28;;;-8.15;100.00
65760;BME280;52496;51.082;5.066;2022-12-18T08:33:22;102464.84;;;-8.03;100.00
65760;BME280;52496;51.082;5.066;2022-12-18T08:35:54;102461.09;;;-7.88;100.00
65760;BME280;52496;51.082;5.066;2022-12-18T08:38:24;102463.53;;;-7.77;100.00
65760;BME280;52496;51.082;5.066;2022-12-18T08:41:02;102457.22;;;-7.64;100.00
65760;BME280;52496;51.082;5.066;2022-12-18T08:43:34;102465.63;;;-7.50;100.00
65760;BME280;52496;51.082;5.066;2022-12-18T08:46:25;102469.63;;;-7.33;100.00
65760;BME280;52496;51.082;5.066;2022-12-18T08:48:56;102453.75;;;-7.18;100.00
65760;BME280;52496;51.082;5.066;2022-12-18T08:51:26;102451.72;;;-7.04;100.00
65760;BME280;52496;51.082;5.066;2022-12-18T08:54:00;102454.03;;;-6.90;100.00
65760;BME280;52496;51.082;5.066;2022-12-18T08:56:32;102452.88;;;-6.77;100.00
65760;BME280;52496;51.082;5.066;2022-12-18T08:59:03;102462.16;;;-6.65;100.00
65760;BME280;52496;51.082;5.066;2022-12-18T09:01:36;102464.47;;;-6.53;100.00
65760;BME280;52496;51.082;5.066;2022-12-18T09:04:07;102447.75;;;-6.42;100.00
65760;BME280;52496;51.082;5.066;2022-12-18T09:06:40;102447.53;;;-6.33;100.00
65760;BME280;52496;51.082;5.066;2022-12-18T09:09:10;102439.44;;;-6.21;100.00
65760;BME280;52496;51.082;5.066;2022-12-18T09:11:41;102432.25;;;-6.11;100.00
65760;BME280;52496;51.082;5.066;2022-12-18T09:14:11;102436.28;;;-6.00;100.00
65760;BME280;52496;51.082;5.066;2022-12-18T09:16:42;102440.34;;;-5.89;100.00
65760;BME280;52496;51.082;5.066;2022-12-18T09:19:13;102439.22;;;-5.79;100.00
65760;BME280;52496;51.082;5.066;2022-12-18T09:21:43;102434.59;;;-5.69;100.00
65760;BME280;52496;51.082;5.066;2022-12-18T09:24:14;102436.09;;;-5.59;100.00
65760;BME280;52496;51.082;5.066;2022-12-18T09:26:45;102435.84;;;-5.50;100.00
65760;BME280;52496;51.082;5.066;2022-12-18T09:29:16;102432.91;;;-5.39;100.00
65760;BME280;52496;51.082;5.066;2022-12-18T09:31:46;102433.59;;;-5.33;100.00
65760;BME280;52496;51.082;5.066;2022-12-18T09:34:17;102422.06;;;-5.24;100.00
65760;BME280;52496;51.082;5.066;2022-12-18T09:36:48;102421.69;;;-5.12;100.00
65760;BME280;52496;51.082;5.066;2022-12-18T09:39:18;102424.09;;;-5.04;100.00
65760;BME280;52496;51.082;5.066;2022-12-18T09:41:55;102430.75;;;-4.94;100.00
65760;BME280;52496;51.082;5.066;2022-12-18T09:44:43;102437.41;;;-4.83;100.00
65760;BME280;52496;51.082;5.066;2022-12-18T09:47:28;102444.91;;;-4.73;100.00
65760;BME280;52496;51.082;5.066;2022-12-18T09:50:06;102435.03;;;-4.63;100.00
65760;BME280;52496;51.082;5.066;2022-12-18T09:52:49;102437.31;;;-4.52;100.00
65760;BME280;52496;51.082;5.066;2022-12-18T09:55:34;102429.19;;;-4.43;100.00
65760;BME280;52496;51.082;5.066;2022-12-18T10:00:41;102439.88;;;-4.23;100.00
65760;BME280;52496;51.082;5.066;2022-12-18T10:03:14;102435.22;;;-4.15;100.00
65760;BME280;52496;51.082;5.066;2022-12-18T10:06:08;102424.56;;;-4.08;100.00
65760;BME280;52496;51.082;5.066;2022-12-18T10:09:11;102421.66;;;-3.99;100.00
65760;BME280;52496;51.082;5.066;2022-12-18T10:20:13;102408.22;;;-3.63;100.00
65760;BME280;52496;51.082;5.066;2022-12-18T10:25:37;102395.41;;;-3.46;100.00
65760;BME280;52496;51.082;5.066;2022-12-18T10:28:12;102379.38;;;-3.37;100.00
65760;BME280;52496;51.082;5.066;2022-12-18T10:30:43;102373.91;;;-3.31;100.00
65760;BME280;52496;51.082;5.066;2022-12-18T10:33:21;102364.78;;;-3.20;100.00
65760;BME280;52496;51.082;5.066;2022-12-18T10:35:52;102365.53;;;-3.17;100.00
65760;BME280;52496;51.082;5.066;2022-12-18T10:38:27;102354.81;;;-3.11;100.00
65760;BME280;52496;51.082;5.066;2022-12-18T10:41:06;102360.69;;;-3.04;100.00
65760;BME280;52496;51.082;5.066;2022-12-18T10:44:19;102355.22;;;-2.98;100.00
65760;BME280;52496;51.082;5.066;2022-12-18T10:46:53;102349.75;;;-2.92;100.00
65760;BME280;52496;51.082;5.066;2022-12-18T10:49:29;102332.06;;;-2.87;100.00
65760;BME280;52496;51.082;5.066;2022-12-18T10:52:14;102338.78;;;-2.80;100.00
65760;BME280;52496;51.082;5.066;2022-12-18T10:54:51;102331.44;;;-2.71;100.00
65760;BME280;52496;51.082;5.066;2022-12-18T10:57:39;102328.59;;;-2.65;100.00
65760;BME280;52496;51.082;5.066;2022-12-18T11:00:24;102331.81;;;-2.59;100.00
65760;BME280;52496;51.082;5.066;2022-12-18T11:02:56;102321.94;;;-2.52;100.00
65760;BME280;52496;51.082;5.066;2022-12-18T11:05:34;102319.06;;;-2.46;100.00
65760;BME280;52496;51.082;5.066;2022-12-18T11:08:19;102329.34;;;-2.41;100.00
65760;BME280;52496;51.082;5.066;2022-12-18T11:10:51;102319.44;;;-2.35;100.00
65760;BME280;52496;51.082;5.066;2022-12-18T11:13:25;102322.69;;;-2.28;100.00
65760;BME280;52496;51.082;5.066;2022-12-18T11:15:56;102318.09;;;-2.23;100.00
65760;BME280;52496;51.082;5.066;2022-12-18T11:23:34;102318.13;;;-2.04;100.00
65760;BME280;52496;51.082;5.066;2022-12-18T11:26:05;102316.03;;;-1.96;100.00
65760;BME280;52496;51.082;5.066;2022-12-18T11:28:52;102314.72;;;-1.86;100.00
65760;BME280;52496;51.082;5.066;2022-12-18T11:31:27;102308.28;;;-1.78;100.00
65760;BME280;52496;51.082;5.066;2022-12-18T11:34:10;102308.84;;;-1.72;100.00
65760;BME280;52496;51.082;5.066;2022-12-18T11:36:45;102309.56;;;-1.68;100.00
65760;BME280;52496;51.082;5.066;2022-12-18T11:42:03;102309.28;;;-1.62;100.00
65760;BME280;52496;51.082;5.066;2022-12-18T11:50:51;102286.03;;;-1.51;100.00
65760;BME280;52496;51.082;5.066;2022-12-18T11:53:25;102292.84;;;-1.47;100.00
65760;BME280;52496;51.082;5.066;2022-12-18T12:12:48;102269.97;;;-1.07;100.00
65760;BME280;52496;51.082;5.066;2022-12-18T12:15:42;102274.16;;;-1.03;100.00
65760;BME280;52496;51.082;5.066;2022-12-18T12:21:34;102255.31;;;-0.94;100.00
65760;BME280;52496;51.082;5.066;2022-12-18T12:30:20;102228.75;;;-0.87;100.00
65760;BME280;52496;51.082;5.066;2022-12-18T12:35:54;102244.06;;;-0.78;100.00
65760;BME280;52496;51.082;5.066;2022-12-18T12:38:41;102243.91;;;-0.75;100.00
65760;BME280;52496;51.082;5.066;2022-12-18T12:41:15;102234.94;;;-0.71;100.00
65760;BME280;52496;51.082;5.066;2022-12-18T12:44:09;102236.34;;;-0.64;100.00
65760;BME280;52496;51.082;5.066;2022-12-18T12:46:43;102232.63;;;-0.60;100.00
65760;BME280;52496;51.082;5.066;2022-12-18T12:49:18;102220.13;;;-0.55;100.00
65760;BME280;52496;51.082;5.066;2022-12-18T12:52:10;102215.44;;;-0.50;100.00
65760;BME280;52496;51.082;5.066;2022-12-18T12:54:42;102213.50;;;-0.46;100.00
65760;BME280;52496;51.082;5.066;2022-12-18T12:57:21;102215.13;;;-0.43;100.00
65760;BME280;52496;51.082;5.066;2022-12-18T13:02:50;102220.84;;;-0.35;100.00
65760;BME280;52496;51.082;5.066;2022-12-18T13:05:34;102220.53;;;-0.29;100.00
65760;BME280;52496;51.082;5.066;2022-12-18T13:08:10;102215.94;;;-0.26;100.00
65760;BME280;52496;51.082;5.066;2022-12-18T13:10:42;102216.63;;;-0.22;100.00
65760;BME280;52496;51.082;5.066;2022-12-18T13:13:14;102212.00;;;-0.17;100.00
65760;BME280;52496;51.082;5.066;2022-12-18T13:18:21;102206.47;;;-0.12;100.00
65760;BME280;52496;51.082;5.066;2022-12-18T13:23:35;102199.38;;;-0.10;100.00
65760;BME280;52496;51.082;5.066;2022-12-18T13:34:22;102195.63;;;-0.06;100.00
65760;BME280;52496;51.082;5.066;2022-12-18T13:36:54;102195.63;;;-0.06;100.00
65760;BME280;52496;51.082;5.066;2022-12-18T13:39:32;102189.53;;;-0.07;100.00
65760;BME280;52496;51.082;5.066;2022-12-18T13:44:39;102187.66;;;-0.05;100.00
65760;BME280;52496;51.082;5.066;2022-12-18T13:47:32;102176.31;;;-0.05;100.00
65760;BME280;52496;51.082;5.066;2022-12-18T13:50:20;102177.31;;;-0.08;100.00
65760;BME280;52496;51.082;5.066;2022-12-18T13:52:52;102170.53;;;-0.12;100.00
65760;BME280;52496;51.082;5.066;2022-12-18T13:55:24;102172.38;;;-0.14;100.00
65760;BME280;52496;51.082;5.066;2022-12-18T13:58:04;102168.97;;;-0.16;100.00
65760;BME280;52496;51.082;5.066;2022-12-18T14:00:36;102174.25;;;-0.16;100.00
65760;BME280;52496;51.082;5.066;2022-12-18T14:03:23;102170.00;;;-0.18;100.00
65760;BME280;52496;51.082;5.066;2022-12-18T14:05:57;102176.13;;;-0.18;100.00
65760;BME280;52496;51.082;5.066;2022-12-18T14:08:34;102171.88;;;-0.20;100.00
65760;BME280;52496;51.082;5.066;2022-12-18T14:11:07;102175.34;;;-0.20;100.00
65760;BME280;52496;51.082;5.066;2022-12-18T14:13:47;102184.19;;;-0.21;100.00
65760;BME280;52496;51.082;5.066;2022-12-18T14:16:18;102176.34;;;-0.22;100.00
65760;BME280;52496;51.082;5.066;2022-12-18T14:18:54;102180.00;;;-0.25;100.00
65760;BME280;52496;51.082;5.066;2022-12-18T14:21:28;102177.47;;;-0.27;100.00
65760;BME280;52496;51.082;5.066;2022-12-18T14:24:04;102186.25;;;-0.28;100.00
65760;BME280;52496;51.082;5.066;2022-12-18T14:26:36;102189.66;;;-0.26;100.00
65760;BME280;52496;51.082;5.066;2022-12-18T14:34:37;102179.41;;;-0.30;100.00
65760;BME280;52496;51.082;5.066;2022-12-18T14:37:12;102180.31;;;-0.31;100.00
65760;BME280;52496;51.082;5.066;2022-12-18T14:39:54;102178.63;;;-0.32;100.00
65760;BME280;52496;51.082;5.066;2022-12-18T14:42:30;102176.94;;;-0.33;100.00
65760;BME280;52496;51.082;5.066;2022-12-18T14:48:08;102175.38;;;-0.37;100.00
65760;BME280;52496;51.082;5.066;2022-12-18T14:50:42;102177.25;;;-0.39;100.00
65760;BME280;52496;51.082;5.066;2022-12-18T14:53:27;102173.84;;;-0.41;100.00
65760;BME280;52496;51.082;5.066;2022-12-18T14:56:03;102183.59;;;-0.43;100.00
65760;BME280;52496;51.082;5.066;2022-12-18T14:58:34;102183.69;;;-0.45;100.00
65760;BME280;52496;51.082;5.066;2022-12-18T15:01:06;102182.06;;;-0.48;100.00
65760;BME280;52496;51.082;5.066;2022-12-18T15:03:43;102176.19;;;-0.53;100.00
65760;BME280;52496;51.082;5.066;2022-12-18T15:06:34;102173.66;;;-0.54;100.00